sensor_id;sensor_type;location;lat;lon;timestamp;pressure;altitude;pressure_sealevel;temperature;humidity
7111;BME280;3597;42.650;23.386;2024-03-23T00:55:41;96250.41;;;3.55;60.39
7111;BME280;3597;42.650;23.386;2024-03-23T00:58:07;96240.66;;;3.61;59.88
7111;BME280;3597;42.650;23.386;2024-03-23T01:00:32;96250.66;;;3.61;59.61
7111;BME280;3597;42.650;23.386;2024-03-23T01:02:58;96237.56;;;3.63;58.70
7111;BME280;3597;42.650;23.386;2024-03-23T01:05:24;96236.38;;;3.64;60.88
7111;BME280;3597;42.650;23.386;2024-03-23T01:07:49;96237.13;;;3.64;58.84
7111;BME280;3597;42.650;23.386;2024-03-23T01:10:15;96204.28;;;3.37;60.97
7111;BME280;3597;42.650;23.386;2024-03-23T01:12:41;96245.13;;;3.68;59.24
7111;BME280;3597;42.650;23.386;2024-03-23T01:15:06;96234.88;;;3.63;58.26
7111;BME280;3597;42.650;23.386;2024-03-23T01:17:32;96224.84;;;3.63;59.94
7111;BME280;3597;42.650;23.386;2024-03-23T01:19:58;96240.09;;;3.70;60.94
7111;BME280;3597;42.650;23.386;2024-03-23T01:22:23;96226.69;;;3.66;60.39
7111;BME280;3597;42.650;23.386;2024-03-23T01:24:49;96219.38;;;3.67;61.07
7111;BME280;3597;42.650;23.386;2024-03-23T01:27:14;96194.06;;;3.48;58.37
7111;BME280;3597;42.650;23.386;2024-03-23T01:29:40;96219.94;;;3.58;59.44
7111;BME280;3597;42.650;23.386;2024-03-23T01:32:06;96227.72;;;3.56;59.38
7111;BME280;3597;42.650;23.386;2024-03-23T01:34:32;96245.28;;;3.61;59.55
7111;BME280;3597;42.650;23.386;2024-03-23T01:36:58;96233.56;;;3.51;61.45
7111;BME280;3597;42.650;23.386;2024-03-23T01:39:24;96215.78;;;3.37;59.76
7111;BME280;3597;42.650;23.386;2024-03-23T01:41:49;96237.34;;;3.54;58.98
7111;BME280;3597;42.650;23.386;2024-03-23T01:44:15;96224.06;;;3.47;60.08
7111;BME280;3597;42.650;23.386;2024-03-23T01:46:41;96213.16;;;3.34;61.30
7111;BME280;3597;42.650;23.386;2024-03-23T01:49:08;96184.84;;;3.29;59.21
7111;BME280;3597;42.650;23.386;2024-03-23T01:51:36;96224.72;;;3.51;61.43
7111;BME280;3597;42.650;23.386;2024-03-23T01:54:02;96224.16;;;3.59;61.10
7111;BME280;3597;42.650;23.386;2024-03-23T01:56:29;96213.81;;;3.58;61.14
7111;BME280;3597;42.650;23.386;2024-03-23T01:58:55;96208.19;;;3.52;59.03
7111;BME280;3597;42.650;23.386;2024-03-23T02:01:22;96219.28;;;3.54;60.21
7111;BME280;3597;42.650;23.386;2024-03-23T02:03:47;96205.00;;;3.57;59.24
7111;BME280;3597;42.650;23.386;2024-03-23T02:06:13;96211.69;;;3.49;57.09
7111;BME280;3597;42.650;23.386;2024-03-23T02:08:39;96175.81;;;3.20;59.91
7111;BME280;3597;42.650;23.386;2024-03-23T02:11:05;96210.41;;;3.37;58.92
7111;BME280;3597;42.650;23.386;2024-03-23T02:13:30;96186.56;;;3.20;59.19
7111;BME280;3597;42.650;23.386;2024-03-23T02:15:57;96213.25;;;3.30;59.79
7111;BME280;3597;42.650;23.386;2024-03-23T02:18:23;96201.75;;;3.30;59.79
7111;BME280;3597;42.650;23.386;2024-03-23T02:20:48;96208.91;;;3.36;58.41
7111;BME280;3597;42.650;23.386;2024-03-23T02:23:17;96210.06;;;3.35;59.83
7111;BME280;3597;42.650;23.386;2024-03-23T02:25:46;96225.59;;;3.48;59.09
7111;BME280;3597;42.650;23.386;2024-03-23T02:28:12;96234.41;;;3.48;58.92
7111;BME280;3597;42.650;23.386;2024-03-23T02:30:38;96223.31;;;3.46;58.75
7111;BME280;3597;42.650;23.386;2024-03-23T02:33:04;96220.56;;;3.30;59.43
7111;BME280;3597;42.650;23.386;2024-03-23T02:35:30;96199.88;;;3.27;59.47
7111;BME280;3597;42.650;23.386;2024-03-23T02:37:56;96192.31;;;3.22;58.07
7111;BME280;3597;42.650;23.386;2024-03-23T02:40:25;96205.66;;;3.25;57.35
7111;BME280;3597;42.650;23.386;2024-03-23T02:42:51;96198.50;;;3.19;57.54
7111;BME280;3597;42.650;23.386;2024-03-23T02:45:17;96202.06;;;3.32;55.23
7111;BME280;3597;42.650;23.386;2024-03-23T02:47:43;96220.97;;;3.48;54.79
7111;BME280;3597;42.650;23.386;2024-03-23T02:50:09;96215.50;;;3.32;56.34
7111;BME280;3597;42.650;23.386;2024-03-23T02:52:35;96226.91;;;3.00;59.97
7111;BME280;3597;42.650;23.386;2024-03-23T02:55:01;96170.66;;;2.50;59.51
7111;BME280;3597;42.650;23.386;2024-03-23T02:57:27;96207.13;;;2.71;57.48
7111;BME280;3597;42.650;23.386;2024-03-23T02:59:53;96232.16;;;2.87;58.12
7111;BME280;3597;42.650;23.386;2024-03-23T03:02:20;96228.97;;;2.92;59.64
7111;BME280;3597;42.650;23.386;2024-03-23T03:04:46;96204.56;;;2.83;60.62
7111;BME280;3597;42.650;23.386;2024-03-23T03:07:12;96206.78;;;2.88;58.68
7111;BME280;3597;42.650;23.386;2024-03-23T03:09:37;96194.66;;;2.80;61.07
7111;BME280;3597;42.650;23.386;2024-03-23T03:12:05;96218.72;;;2.87;59.14
7111;BME280;3597;42.650;23.386;2024-03-23T03:14:31;96227.19;;;3.06;60.62
7111;BME280;3597;42.650;23.386;2024-03-23T03:16:56;96202.44;;;2.94;58.07
7111;BME280;3597;42.650;23.386;2024-03-23T03:19:22;96202.44;;;2.94;59.39
7111;BME280;3597;42.650;23.386;2024-03-23T03:21:48;96203.63;;;2.93;59.29
7111;BME280;3597;42.650;23.386;2024-03-23T03:24:13;96200.78;;;2.81;60.64
7111;BME280;3597;42.650;23.386;2024-03-23T03:26:39;96207.19;;;2.87;60.78
7111;BME280;3597;42.650;23.386;2024-03-23T03:29:05;96211.72;;;2.90;58.60
7111;BME280;3597;42.650;23.386;2024-03-23T03:31:30;96219.38;;;2.91;59.95
7111;BME280;3597;42.650;23.386;2024-03-23T03:33:56;96211.69;;;2.93;59.15
7111;BME280;3597;42.650;23.386;2024-03-23T03:36:22;96218.03;;;3.03;58.81
7111;BME280;3597;42.650;23.386;2024-03-23T03:38:47;96190.66;;;2.88;61.39
7111;BME280;3597;42.650;23.386;2024-03-23T03:41:13;96204.16;;;3.04;59.41
7111;BME280;3597;42.650;23.386;2024-03-23T03:43:39;96230.41;;;3.17;60.39
7111;BME280;3597;42.650;23.386;2024-03-23T03:46:04;96228.91;;;3.16;60.43
7111;BME280;3597;42.650;23.386;2024-03-23T03:48:30;96217.94;;;3.07;58.37
7111;BME280;3597;42.650;23.386;2024-03-23T03:50:56;96206.91;;;3.01;58.35
7111;BME280;3597;42.650;23.386;2024-03-23T03:53:21;96229.25;;;2.98;59.48
7111;BME280;3597;42.650;23.386;2024-03-23T03:55:47;96199.91;;;2.87;59.74
7111;BME280;3597;42.650;23.386;2024-03-23T03:58:12;96211.81;;;2.86;59.24
7111;BME280;3597;42.650;23.386;2024-03-23T04:00:38;96199.06;;;2.90;61.15
7111;BME280;3597;42.650;23.386;2024-03-23T04:03:03;96191.34;;;2.92;59.06
7111;BME280;3597;42.650;23.386;2024-03-23T04:05:29;96210.38;;;3.01;59.41
7111;BME280;3597;42.650;23.386;2024-03-23T04:07:55;96207.41;;;2.96;59.47
7111;BME280;3597;42.650;23.386;2024-03-23T04:10:20;96197.88;;;2.91;58.79
7111;BME280;3597;42.650;23.386;2024-03-23T04:12:47;96165.56;;;2.75;59.41
7111;BME280;3597;42.650;23.386;2024-03-23T04:15:13;96220.97;;;3.09;60.43
7111;BME280;3597;42.650;23.386;2024-03-23T04:17:38;96193.56;;;2.97;58.76
7111;BME280;3597;42.650;23.386;2024-03-23T04:20:05;96195.91;;;2.95;59.86
7111;BME280;3597;42.650;23.386;2024-03-23T04:22:34;96208.69;;;3.08;59.19
7111;BME280;3597;42.650;23.386;2024-03-23T04:25:00;96178.53;;;2.80;59.62
7111;BME280;3597;42.650;23.386;2024-03-23T04:27:33;96194.38;;;2.94;59.36
7111;BME280;3597;42.650;23.386;2024-03-23T04:29:59;96215.69;;;3.05;59.34
7111;BME280;3597;42.650;23.386;2024-03-23T04:32:26;96192.88;;;2.93;61.25
7111;BME280;3597;42.650;23.386;2024-03-23T04:34:52;96185.75;;;3.03;60.88
7111;BME280;3597;42.650;23.386;2024-03-23T04:37:17;96199.19;;;3.03;58.91
7111;BME280;3597;42.650;23.386;2024-03-23T04:39:43;96180.19;;;2.94;58.64
7111;BME280;3597;42.650;23.386;2024-03-23T04:42:08;96197.94;;;3.27;59.65
7111;BME280;3597;42.650;23.386;2024-03-23T04:44:34;96214.72;;;3.87;59.58
7111;BME280;3597;42.650;23.386;2024-03-23T04:47:03;96215.81;;;4.06;58.83
7111;BME280;3597;42.650;23.386;2024-03-23T04:49:28;96213.19;;;4.02;55.07
7111;BME280;3597;42.650;23.386;2024-03-23T04:51:54;96190.06;;;3.89;56.31
7111;BME280;3597;42.650;23.386;2024-03-23T04:54:19;96195.22;;;3.99;54.95
7111;BME280;3597;42.650;23.386;2024-03-23T04:56:45;96211.97;;;4.23;56.44
7111;BME280;3597;42.650;23.386;2024-03-23T04:59:11;96181.03;;;4.28;56.74
7111;BME280;3597;42.650;23.386;2024-03-23T05:01:36;96205.00;;;4.54;55.70
7111;BME280;3597;42.650;23.386;2024-03-23T05:04:04;96194.38;;;4.64;56.61
7111;BME280;3597;42.650;23.386;2024-03-23T05:06:30;96213.78;;;4.87;52.54
7111;BME280;3597;42.650;23.386;2024-03-23T05:08:56;96209.47;;;4.90;55.50
7111;BME280;3597;42.650;23.386;2024-03-23T05:11:21;96197.75;;;4.97;55.18
7111;BME280;3597;42.650;23.386;2024-03-23T05:13:47;96193.59;;;5.21;53.45
7111;BME280;3597;42.650;23.386;2024-03-23T05:16:12;96163.91;;;5.08;55.60
7111;BME280;3597;42.650;23.386;2024-03-23T05:18:38;96212.56;;;5.59;54.80
7111;BME280;3597;42.650;23.386;2024-03-23T05:21:04;96215.59;;;5.74;54.51
7111;BME280;3597;42.650;23.386;2024-03-23T05:23:29;96207.72;;;5.92;51.88
7111;BME280;3597;42.650;23.386;2024-03-23T05:25:55;96182.63;;;5.79;48.74
7111;BME280;3597;42.650;23.386;2024-03-23T05:28:23;96207.28;;;6.19;47.64
7111;BME280;3597;42.650;23.386;2024-03-23T05:30:53;96212.34;;;6.29;48.61
7111;BME280;3597;42.650;23.386;2024-03-23T05:33:20;96190.09;;;6.13;47.52
7111;BME280;3597;42.650;23.386;2024-03-23T05:35:46;96196.34;;;6.22;47.00
7111;BME280;3597;42.650;23.386;2024-03-23T05:38:13;96207.56;;;6.46;48.17
7111;BME280;3597;42.650;23.386;2024-03-23T05:40:39;96212.16;;;6.71;46.68
7111;BME280;3597;42.650;23.386;2024-03-23T05:43:07;96169.34;;;6.57;46.76
7111;BME280;3597;42.650;23.386;2024-03-23T05:45:34;96150.63;;;6.62;45.47
7111;BME280;3597;42.650;23.386;2024-03-23T05:48:00;96212.38;;;7.20;46.43
7111;BME280;3597;42.650;23.386;2024-03-23T05:50:26;96191.25;;;7.15;45.82
7111;BME280;3597;42.650;23.386;2024-03-23T05:52:51;96201.84;;;7.44;44.53
7111;BME280;3597;42.650;23.386;2024-03-23T05:55:17;96180.94;;;7.44;43.49
7111;BME280;3597;42.650;23.386;2024-03-23T05:57:43;96186.06;;;7.51;42.58
7111;BME280;3597;42.650;23.386;2024-03-23T06:00:09;96182.88;;;7.75;42.47
7111;BME280;3597;42.650;23.386;2024-03-23T06:02:44;96177.88;;;8.13;42.11
7111;BME280;3597;42.650;23.386;2024-03-23T06:05:12;96186.41;;;8.33;43.30
7111;BME280;3597;42.650;23.386;2024-03-23T06:07:38;96194.56;;;8.52;40.29
7111;BME280;3597;42.650;23.386;2024-03-23T06:10:07;96162.44;;;8.32;41.65
7111;BME280;3597;42.650;23.386;2024-03-23T06:12:33;96193.81;;;8.69;42.23
7111;BME280;3597;42.650;23.386;2024-03-23T06:14:58;96183.13;;;8.84;42.14
7111;BME280;3597;42.650;23.386;2024-03-23T06:17:24;96186.88;;;9.14;42.09
7111;BME280;3597;42.650;23.386;2024-03-23T06:19:49;96162.31;;;9.08;42.43
7111;BME280;3597;42.650;23.386;2024-03-23T06:22:15;96177.34;;;9.28;41.96
7111;BME280;3597;42.650;23.386;2024-03-23T06:24:41;96159.81;;;9.47;43.19
7111;BME280;3597;42.650;23.386;2024-03-23T06:27:06;96172.25;;;9.72;42.70
7111;BME280;3597;42.650;23.386;2024-03-23T06:29:32;96172.09;;;9.75;41.69
7111;BME280;3597;42.650;23.386;2024-03-23T06:31:58;96158.38;;;9.70;43.45
7111;BME280;3597;42.650;23.386;2024-03-23T06:34:24;96181.03;;;9.67;41.78
7111;BME280;3597;42.650;23.386;2024-03-23T06:36:50;96188.50;;;9.90;40.81
7111;BME280;3597;42.650;23.386;2024-03-23T06:39:16;96174.16;;;9.90;40.42
7111;BME280;3597;42.650;23.386;2024-03-23T06:41:42;96194.72;;;10.14;41.11
7111;BME280;3597;42.650;23.386;2024-03-23T06:44:08;96167.34;;;9.94;42.70
7111;BME280;3597;42.650;23.386;2024-03-23T06:46:34;96168.28;;;10.15;39.92
7111;BME280;3597;42.650;23.386;2024-03-23T06:48:59;96153.88;;;10.00;40.57
7111;BME280;3597;42.650;23.386;2024-03-23T06:51:25;96162.28;;;10.11;39.02
7111;BME280;3597;42.650;23.386;2024-03-23T06:53:50;96163.97;;;10.32;38.71
7111;BME280;3597;42.650;23.386;2024-03-23T06:56:16;96164.38;;;10.40;36.98
7111;BME280;3597;42.650;23.386;2024-03-23T06:58:41;96170.84;;;10.66;38.69
7111;BME280;3597;42.650;23.386;2024-03-23T07:01:07;96160.63;;;10.61;37.61
7111;BME280;3597;42.650;23.386;2024-03-23T07:03:33;96165.38;;;10.90;38.95
7111;BME280;3597;42.650;23.386;2024-03-23T07:05:58;96157.22;;;10.90;36.78
7111;BME280;3597;42.650;23.386;2024-03-23T07:08:24;96135.63;;;11.01;37.12
7111;BME280;3597;42.650;23.386;2024-03-23T07:10:50;96178.50;;;11.30;36.78
7111;BME280;3597;42.650;23.386;2024-03-23T07:13:15;96158.22;;;11.31;36.60
7111;BME280;3597;42.650;23.386;2024-03-23T07:15:42;96136.88;;;11.29;34.33
7111;BME280;3597;42.650;23.386;2024-03-23T07:18:08;96173.78;;;11.60;36.79
7111;BME280;3597;42.650;23.386;2024-03-23T07:20:34;96143.72;;;11.54;35.85
7111;BME280;3597;42.650;23.386;2024-03-23T07:23:00;96150.38;;;11.68;34.31
7111;BME280;3597;42.650;23.386;2024-03-23T07:25:25;96154.16;;;11.70;35.44
7111;BME280;3597;42.650;23.386;2024-03-23T07:27:55;96155.72;;;12.06;35.50
7111;BME280;3597;42.650;23.386;2024-03-23T07:30:21;96145.53;;;12.07;33.79
7111;BME280;3597;42.650;23.386;2024-03-23T07:32:46;96150.78;;;12.10;35.20
7111;BME280;3597;42.650;23.386;2024-03-23T07:35:12;96142.28;;;12.23;34.17
7111;BME280;3597;42.650;23.386;2024-03-23T07:37:38;96134.03;;;12.38;33.64
7111;BME280;3597;42.650;23.386;2024-03-23T07:40:04;96157.13;;;12.57;33.49
7111;BME280;3597;42.650;23.386;2024-03-23T07:42:30;96130.75;;;12.54;34.64
7111;BME280;3597;42.650;23.386;2024-03-23T07:44:56;96122.44;;;12.63;35.01
7111;BME280;3597;42.650;23.386;2024-03-23T07:47:22;96136.88;;;12.89;34.61
7111;BME280;3597;42.650;23.386;2024-03-23T07:49:48;96152.75;;;13.11;34.97
7111;BME280;3597;42.650;23.386;2024-03-23T07:52:14;96132.44;;;12.92;34.19
7111;BME280;3597;42.650;23.386;2024-03-23T07:54:39;96126.91;;;13.12;33.53
7111;BME280;3597;42.650;23.386;2024-03-23T07:57:05;96126.31;;;13.03;34.04
7111;BME280;3597;42.650;23.386;2024-03-23T07:59:32;96124.91;;;13.33;34.01
7111;BME280;3597;42.650;23.386;2024-03-23T08:01:59;96136.44;;;13.43;33.03
7111;BME280;3597;42.650;23.386;2024-03-23T08:04:26;96135.25;;;13.49;34.21
7111;BME280;3597;42.650;23.386;2024-03-23T08:06:52;96116.06;;;13.44;32.93
7111;BME280;3597;42.650;23.386;2024-03-23T08:09:17;96123.06;;;13.50;32.26
7111;BME280;3597;42.650;23.386;2024-03-23T08:11:44;96123.25;;;13.78;33.70
7111;BME280;3597;42.650;23.386;2024-03-23T08:14:11;96118.34;;;13.82;33.75
7111;BME280;3597;42.650;23.386;2024-03-23T08:16:36;96135.63;;;13.99;34.32
7111;BME280;3597;42.650;23.386;2024-03-23T08:19:02;96105.13;;;13.75;32.84
7111;BME280;3597;42.650;23.386;2024-03-23T08:21:29;96121.38;;;13.90;33.15
7111;BME280;3597;42.650;23.386;2024-03-23T08:23:56;96126.72;;;14.10;32.99
7111;BME280;3597;42.650;23.386;2024-03-23T08:26:21;96112.50;;;14.06;32.74
7111;BME280;3597;42.650;23.386;2024-03-23T08:28:47;96108.31;;;14.11;31.86
7111;BME280;3597;42.650;23.386;2024-03-23T08:31:13;96126.97;;;14.12;34.32
7111;BME280;3597;42.650;23.386;2024-03-23T08:33:40;96128.03;;;14.20;33.97
7111;BME280;3597;42.650;23.386;2024-03-23T08:36:08;96127.00;;;14.18;34.79
7111;BME280;3597;42.650;23.386;2024-03-23T08:38:35;96080.66;;;14.03;31.90
7111;BME280;3597;42.650;23.386;2024-03-23T08:41:05;96106.13;;;14.20;31.14
7111;BME280;3597;42.650;23.386;2024-03-23T08:43:41;96121.38;;;14.32;31.55
7111;BME280;3597;42.650;23.386;2024-03-23T08:46:09;96124.22;;;14.12;31.37
7111;BME280;3597;42.650;23.386;2024-03-23T08:48:38;96087.84;;;13.95;32.37
7111;BME280;3597;42.650;23.386;2024-03-23T08:51:07;96115.34;;;14.23;32.54
7111;BME280;3597;42.650;23.386;2024-03-23T08:53:34;96119.38;;;14.33;33.59
7111;BME280;3597;42.650;23.386;2024-03-23T08:56:00;96120.88;;;14.34;31.98
7111;BME280;3597;42.650;23.386;2024-03-23T08:58:27;96109.16;;;14.28;32.69
7111;BME280;3597;42.650;23.386;2024-03-23T09:00:54;96091.25;;;14.32;32.17
7111;BME280;3597;42.650;23.386;2024-03-23T09:03:26;96105.53;;;14.48;32.40
7111;BME280;3597;42.650;23.386;2024-03-23T09:05:52;96084.41;;;14.59;32.37
7111;BME280;3597;42.650;23.386;2024-03-23T09:08:18;96079.72;;;14.76;33.22
7111;BME280;3597;42.650;23.386;2024-03-23T09:10:44;96070.50;;;14.74;34.20
7111;BME280;3597;42.650;23.386;2024-03-23T09:13:10;96096.97;;;14.99;33.39
7111;BME280;3597;42.650;23.386;2024-03-23T09:15:44;96082.78;;;14.95;31.96
7111;BME280;3597;42.650;23.386;2024-03-23T09:18:10;96094.00;;;15.08;31.74
7111;BME280;3597;42.650;23.386;2024-03-23T09:20:35;96061.81;;;14.81;32.09
7111;BME280;3597;42.650;23.386;2024-03-23T09:23:01;96073.31;;;15.02;33.63
7111;BME280;3597;42.650;23.386;2024-03-23T09:25:27;96072.59;;;15.12;31.49
7111;BME280;3597;42.650;23.386;2024-03-23T09:27:52;96052.59;;;14.90;34.50
7111;BME280;3597;42.650;23.386;2024-03-23T09:30:18;96028.94;;;14.92;33.67
7111;BME280;3597;42.650;23.386;2024-03-23T09:32:45;96065.84;;;15.36;32.20
7111;BME280;3597;42.650;23.386;2024-03-23T09:35:11;96068.84;;;15.49;31.62
7111;BME280;3597;42.650;23.386;2024-03-23T09:37:39;96047.91;;;15.29;30.47
7111;BME280;3597;42.650;23.386;2024-03-23T09:40:09;96029.94;;;15.17;31.38
7111;BME280;3597;42.650;23.386;2024-03-23T09:42:35;96033.69;;;15.25;29.97
7111;BME280;3597;42.650;23.386;2024-03-23T09:45:00;96055.88;;;15.38;32.57
7111;BME280;3597;42.650;23.386;2024-03-23T09:47:27;96033.94;;;15.27;30.05
7111;BME280;3597;42.650;23.386;2024-03-23T09:49:52;96038.94;;;15.29;29.57
7111;BME280;3597;42.650;23.386;2024-03-23T09:52:18;96023.97;;;15.30;29.36
7111;BME280;3597;42.650;23.386;2024-03-23T09:54:44;96030.69;;;15.40;30.71
7111;BME280;3597;42.650;23.386;2024-03-23T09:57:10;96032.19;;;15.41;32.69
7111;BME280;3597;42.650;23.386;2024-03-23T09:59:35;96035.97;;;15.55;29.74
7111;BME280;3597;42.650;23.386;2024-03-23T10:02:01;96034.47;;;15.54;29.36
7111;BME280;3597;42.650;23.386;2024-03-23T10:04:42;96021.50;;;15.54;29.37
7111;BME280;3597;42.650;23.386;2024-03-23T10:07:14;96030.44;;;15.60;31.26
7111;BME280;3597;42.650;23.386;2024-03-23T10:09:40;96012.00;;;15.44;30.76
7111;BME280;3597;42.650;23.386;2024-03-23T10:12:13;96028.47;;;15.61;30.13
7111;BME280;3597;42.650;23.386;2024-03-23T10:14:40;96021.22;;;15.63;31.45
7111;BME280;3597;42.650;23.386;2024-03-23T10:19:46;95998.78;;;15.48;28.28
7111;BME280;3597;42.650;23.386;2024-03-23T10:22:17;96015.75;;;15.63;29.69
7111;BME280;3597;42.650;23.386;2024-03-23T10:24:43;95967.38;;;15.43;29.24
7111;BME280;3597;42.650;23.386;2024-03-23T10:27:09;95996.75;;;15.65;29.71
7111;BME280;3597;42.650;23.386;2024-03-23T10:29:35;95997.78;;;15.73;26.61
7111;BME280;3597;42.650;23.386;2024-03-23T10:32:10;95986.00;;;15.84;28.15
7111;BME280;3597;42.650;23.386;2024-03-23T10:34:37;95961.03;;;15.87;27.25
7111;BME280;3597;42.650;23.386;2024-03-23T10:37:04;95977.50;;;15.87;29.25
7111;BME280;3597;42.650;23.386;2024-03-23T10:39:37;95975.97;;;15.98;28.59
7111;BME280;3597;42.650;23.386;2024-03-23T10:42:07;95973.25;;;15.98;29.56
7111;BME280;3597;42.650;23.386;2024-03-23T10:44:33;95960.69;;;16.08;33.00
7111;BME280;3597;42.650;23.386;2024-03-23T10:47:00;95940.38;;;15.75;29.40
7111;BME280;3597;42.650;23.386;2024-03-23T10:49:28;95960.47;;;16.06;28.21
7111;BME280;3597;42.650;23.386;2024-03-23T10:52:04;95950.75;;;16.05;29.54
7111;BME280;3597;42.650;23.386;2024-03-23T10:54:31;95951.22;;;16.09;28.83
7111;BME280;3597;42.650;23.386;2024-03-23T10:57:10;95943.75;;;16.04;28.38
7111;BME280;3597;42.650;23.386;2024-03-23T10:59:38;95950.38;;;16.25;29.51
7111;BME280;3597;42.650;23.386;2024-03-23T11:02:05;95925.63;;;15.89;27.83
7111;BME280;3597;42.650;23.386;2024-03-23T11:04:37;95907.38;;;15.98;27.98
7111;BME280;3597;42.650;23.386;2024-03-23T11:09:51;95922.25;;;16.08;28.38
7111;BME280;3597;42.650;23.386;2024-03-23T11:14:51;95910.28;;;16.11;28.71
7111;BME280;3597;42.650;23.386;2024-03-23T11:17:21;95912.41;;;16.29;27.49
7111;BME280;3597;42.650;23.386;2024-03-23T11:20:00;95905.19;;;16.26;27.85
7111;BME280;3597;42.650;23.386;2024-03-23T11:22:44;95896.00;;;16.23;28.48
7111;BME280;3597;42.650;23.386;2024-03-23T11:25:23;95888.25;;;16.22;28.59
7111;BME280;3597;42.650;23.386;2024-03-23T11:27:51;95880.28;;;16.18;27.99
7111;BME280;3597;42.650;23.386;2024-03-23T11:30:18;95875.28;;;16.17;28.66
7111;BME280;3597;42.650;23.386;2024-03-23T11:32:45;95876.47;;;16.27;29.16
7111;BME280;3597;42.650;23.386;2024-03-23T11:35:31;95868.91;;;16.39;29.80
7111;BME280;3597;42.650;23.386;2024-03-23T11:38:07;95872.66;;;16.41;27.90
7111;BME280;3597;42.650;23.386;2024-03-23T11:40:35;95835.56;;;16.23;28.83
7111;BME280;3597;42.650;23.386;2024-03-23T11:43:03;95852.06;;;16.53;27.87
7111;BME280;3597;42.650;23.386;2024-03-23T11:45:34;95837.06;;;16.24;27.40
7111;BME280;3597;42.650;23.386;2024-03-23T11:48:17;95850.34;;;16.50;28.17
7111;BME280;3597;42.650;23.386;2024-03-23T11:50:44;95836.41;;;16.43;28.73
7111;BME280;3597;42.650;23.386;2024-03-23T11:53:23;95842.22;;;16.69;29.07
7111;BME280;3597;42.650;23.386;2024-03-23T11:55:59;95837.94;;;16.74;29.76
7111;BME280;3597;42.650;23.386;2024-03-23T11:58:27;95830.78;;;16.89;28.00
7111;BME280;3597;42.650;23.386;2024-03-23T12:01:03;95807.22;;;16.75;29.17
7111;BME280;3597;42.650;23.386;2024-03-23T12:03:31;95806.81;;;16.90;28.58
7111;BME280;3597;42.650;23.386;2024-03-23T12:05:59;95823.56;;;17.11;28.18
7111;BME280;3597;42.650;23.386;2024-03-23T12:08:30;95815.13;;;17.27;28.23
7111;BME280;3597;42.650;23.386;2024-03-23T12:13:31;95805.78;;;17.17;27.70
7111;BME280;3597;42.650;23.386;2024-03-23T12:16:10;95787.25;;;16.93;26.54
7111;BME280;3597;42.650;23.386;2024-03-23T12:18:36;95797.91;;;17.02;27.38
7111;BME280;3597;42.650;23.386;2024-03-23T12:21:02;95780.50;;;16.94;26.52
7111;BME280;3597;42.650;23.386;2024-03-23T12:23:28;95768.47;;;16.97;27.23
7111;BME280;3597;42.650;23.386;2024-03-23T12:25:53;95778.91;;;17.05;26.87
7111;BME280;3597;42.650;23.386;2024-03-23T12:28:19;95763.72;;;16.98;27.98
7111;BME280;3597;42.650;23.386;2024-03-23T12:30:44;95786.63;;;17.06;27.66
7111;BME280;3597;42.650;23.386;2024-03-23T12:33:10;95763.81;;;17.11;26.85
7111;BME280;3597;42.650;23.386;2024-03-23T12:35:36;95761.75;;;17.17;26.13
7111;BME280;3597;42.650;23.386;2024-03-23T12:38:02;95740.84;;;16.90;28.64
7111;BME280;3597;42.650;23.386;2024-03-23T12:40:27;95767.78;;;17.16;27.23
7111;BME280;3597;42.650;23.386;2024-03-23T12:42:53;95750.31;;;17.13;27.86
7111;BME280;3597;42.650;23.386;2024-03-23T12:45:19;95748.03;;;17.17;26.98
7111;BME280;3597;42.650;23.386;2024-03-23T12:47:45;95748.31;;;17.32;26.60
7111;BME280;3597;42.650;23.386;2024-03-23T12:50:11;95728.19;;;17.24;26.67
7111;BME280;3597;42.650;23.386;2024-03-23T12:52:37;95738.81;;;17.33;26.51
7111;BME280;3597;42.650;23.386;2024-03-23T12:55:03;95732.47;;;17.20;26.66
7111;BME280;3597;42.650;23.386;2024-03-23T12:57:31;95722.34;;;17.28;27.33
7111;BME280;3597;42.650;23.386;2024-03-23T12:59:58;95733.88;;;17.45;25.98
7111;BME280;3597;42.650;23.386;2024-03-23T13:02:24;95742.91;;;17.64;26.88
7111;BME280;3597;42.650;23.386;2024-03-23T13:04:50;95732.25;;;17.55;26.58
7111;BME280;3597;42.650;23.386;2024-03-23T13:07:17;95701.94;;;17.42;27.05
7111;BME280;3597;42.650;23.386;2024-03-23T13:09:43;95726.84;;;17.50;26.75
7111;BME280;3597;42.650;23.386;2024-03-23T13:12:08;95721.25;;;17.36;26.59
7111;BME280;3597;42.650;23.386;2024-03-23T13:14:34;95720.06;;;17.32;26.03
7111;BME280;3597;42.650;23.386;2024-03-23T13:17:00;95711.31;;;17.33;26.84
7111;BME280;3597;42.650;23.386;2024-03-23T13:19:27;95701.78;;;17.34;26.66
7111;BME280;3597;42.650;23.386;2024-03-23T13:21:57;95720.59;;;17.68;24.98
7111;BME280;3597;42.650;23.386;2024-03-23T13:24:23;95716.19;;;17.40;26.49
7111;BME280;3597;42.650;23.386;2024-03-23T13:26:52;95711.50;;;17.54;25.59
7111;BME280;3597;42.650;23.386;2024-03-23T13:29:21;95709.50;;;17.55;26.33
7111;BME280;3597;42.650;23.386;2024-03-23T13:31:51;95709.72;;;17.57;25.72
7111;BME280;3597;42.650;23.386;2024-03-23T13:34:17;95686.47;;;17.39;26.51
7111;BME280;3597;42.650;23.386;2024-03-23T13:36:47;95680.06;;;17.50;26.11
7111;BME280;3597;42.650;23.386;2024-03-23T13:39:14;95670.53;;;17.51;25.50
7111;BME280;3597;42.650;23.386;2024-03-23T13:44:07;95674.56;;;17.50;25.97
7111;BME280;3597;42.650;23.386;2024-03-23T13:46:33;95676.50;;;17.36;26.33
7111;BME280;3597;42.650;23.386;2024-03-23T13:49:00;95674.41;;;17.42;26.26
7111;BME280;3597;42.650;23.386;2024-03-23T13:51:26;95663.72;;;17.38;26.35
7111;BME280;3597;42.650;23.386;2024-03-23T13:53:55;95681.91;;;17.60;25.65
7111;BME280;3597;42.650;23.386;2024-03-23T13:56:22;95659.47;;;17.37;25.73
7111;BME280;3597;42.650;23.386;2024-03-23T13:58:48;95671.59;;;17.48;26.36
7111;BME280;3597;42.650;23.386;2024-03-23T14:01:17;95669.19;;;17.57;25.95
7111;BME280;3597;42.650;23.386;2024-03-23T14:03:43;95656.44;;;17.41;26.00
7111;BME280;3597;42.650;23.386;2024-03-23T14:06:10;95676.25;;;17.71;25.99
7111;BME280;3597;42.650;23.386;2024-03-23T14:08:37;95673.06;;;17.67;25.92
7111;BME280;3597;42.650;23.386;2024-03-23T14:11:10;95646.72;;;17.53;25.84
7111;BME280;3597;42.650;23.386;2024-03-23T14:13:37;95663.22;;;17.53;24.90
7111;BME280;3597;42.650;23.386;2024-03-23T14:16:03;95654.94;;;17.40;25.46
7111;BME280;3597;42.650;23.386;2024-03-23T14:18:29;95662.91;;;17.44;25.14
7111;BME280;3597;42.650;23.386;2024-03-23T14:20:59;95651.91;;;17.44;25.57